METAR Data
IDs: Format: Raw Decoded Include TAF

Data at: 2319 UTC 30 Jun 2022

METAR for:KAIK (Aiken Muni, GA, US)
Text:KAIK 302315Z AUTO 14009KT 10SM CLR 27/21 A3016 RMK AO2 LTG DSNT S T02660214
Temperature: 26.6°C ( 80°F)
Dewpoint: 21.4°C ( 71°F) [RH = 73%]
Pressure (altimeter):30.16 inches Hg (1021.4 mb)
Winds:from the SE (140 degrees) at 10 MPH (9 knots; 4.6 m/s)
Visibility:10 or more sm (16+ km)
Ceiling:at least 12,000 feet AGL
Clouds:sky clear below 12,000 feet AGL
QC Flag:automated observation with no human augmentation

TAF for:KAIK (Aiken Muni, GA, US)
Text:No data found